Leoben, Austria
Current Conditions -  °F | °C
As of 10:50 PM on Sunday 21 Dec 2014 (Local Time) from LOXZ Reporting Station
Broken Clouds Broken Clouds  
Wind Chill: 27°   Ceiling: 30000
Heat Index: 27°   Visibility: 19mi
Dew Point: 21°   Wind: 2mph
Humidity: 80%   Direction: 320°NW
Pressure: 30.39"   Gusts: NA
Location:  47.38°N, 15.09°E
Report Text: LOXZ 212050Z 32002KT 30KM FEW060SC BKN300CI M03/M06 Q1029 RMKBKN
Loading
Personal Weather Stations






























Interactive Weather Map New forecast layout! Learn more

10-Day Weather Forecast

Advertisements
Track Severe Weather on mobile